sensor_id;sensor_type;location;lat;lon;timestamp;temperature;humidity
72712;SHT30;60828;40.292;17.998;2022-12-07T00:03:41;11.70;88.48
72712;SHT30;60828;40.292;17.998;2022-12-07T00:06:07;11.74;88.57
72712;SHT30;60828;40.292;17.998;2022-12-07T00:08:34;11.80;88.49
72712;SHT30;60828;40.292;17.998;2022-12-07T00:11:03;11.73;88.38
72712;SHT30;60828;40.292;17.998;2022-12-07T00:13:29;11.79;88.31
72712;SHT30;60828;40.292;17.998;2022-12-07T00:15:55;11.69;88.38
72712;SHT30;60828;40.292;17.998;2022-12-07T00:18:20;11.70;88.55
72712;SHT30;60828;40.292;17.998;2022-12-07T00:20:45;11.65;88.50
72712;SHT30;60828;40.292;17.998;2022-12-07T00:23:11;11.56;88.75
72712;SHT30;60828;40.292;17.998;2022-12-07T00:25:36;11.70;88.80
72712;SHT30;60828;40.292;17.998;2022-12-07T00:28:01;11.65;88.62
72712;SHT30;60828;40.292;17.998;2022-12-07T00:30:27;11.59;88.88
72712;SHT30;60828;40.292;17.998;2022-12-07T00:32:52;11.63;88.97
72712;SHT30;60828;40.292;17.998;2022-12-07T00:35:17;11.66;88.81
72712;SHT30;60828;40.292;17.998;2022-12-07T00:37:43;11.69;88.80
72712;SHT30;60828;40.292;17.998;2022-12-07T00:40:08;11.79;88.54
72712;SHT30;60828;40.292;17.998;2022-12-07T00:42:34;11.80;88.22
72712;SHT30;60828;40.292;17.998;2022-12-07T00:44:59;11.77;88.39
72712;SHT30;60828;40.292;17.998;2022-12-07T00:47:24;11.77;88.45
72712;SHT30;60828;40.292;17.998;2022-12-07T00:49:50;11.76;88.34
72712;SHT30;60828;40.292;17.998;2022-12-07T00:52:15;11.74;88.27
72712;SHT30;60828;40.292;17.998;2022-12-07T00:54:40;11.79;88.51
72712;SHT30;60828;40.292;17.998;2022-12-07T00:57:06;11.69;88.49
72712;SHT30;60828;40.292;17.998;2022-12-07T00:59:31;11.76;88.31
72712;SHT30;60828;40.292;17.998;2022-12-07T01:01:57;11.71;88.27
72712;SHT30;60828;40.292;17.998;2022-12-07T01:04:22;11.55;88.46
72712;SHT30;60828;40.292;17.998;2022-12-07T01:06:47;11.50;88.68
72712;SHT30;60828;40.292;17.998;2022-12-07T01:09:13;11.47;88.87
72712;SHT30;60828;40.292;17.998;2022-12-07T01:11:38;11.55;88.74
72712;SHT30;60828;40.292;17.998;2022-12-07T01:14:03;11.55;88.81
72712;SHT30;60828;40.292;17.998;2022-12-07T01:16:30;11.46;88.94
72712;SHT30;60828;40.292;17.998;2022-12-07T01:18:56;11.49;88.88
72712;SHT30;60828;40.292;17.998;2022-12-07T01:21:22;11.36;88.93
72712;SHT30;60828;40.292;17.998;2022-12-07T01:23:49;11.32;89.02
72712;SHT30;60828;40.292;17.998;2022-12-07T01:26:16;11.42;89.25
72712;SHT30;60828;40.292;17.998;2022-12-07T01:28:41;11.42;89.14
72712;SHT30;60828;40.292;17.998;2022-12-07T01:31:08;11.53;88.89
72712;SHT30;60828;40.292;17.998;2022-12-07T01:33:36;11.62;88.43
72712;SHT30;60828;40.292;17.998;2022-12-07T01:36:06;11.59;88.31
72712;SHT30;60828;40.292;17.998;2022-12-07T01:38:32;11.55;88.29
72712;SHT30;60828;40.292;17.998;2022-12-07T01:40:58;11.42;88.33
72712;SHT30;60828;40.292;17.998;2022-12-07T01:43:24;11.39;88.63
72712;SHT30;60828;40.292;17.998;2022-12-07T01:45:50;11.32;88.73
72712;SHT30;60828;40.292;17.998;2022-12-07T01:48:16;11.28;89.00
72712;SHT30;60828;40.292;17.998;2022-12-07T01:50:43;11.25;89.17
72712;SHT30;60828;40.292;17.998;2022-12-07T01:53:09;11.29;89.17
72712;SHT30;60828;40.292;17.998;2022-12-07T01:55:35;11.32;89.06
72712;SHT30;60828;40.292;17.998;2022-12-07T01:58:02;11.33;89.19
72712;SHT30;60828;40.292;17.998;2022-12-07T02:00:27;11.31;89.16
72712;SHT30;60828;40.292;17.998;2022-12-07T02:05:20;11.22;89.12
72712;SHT30;60828;40.292;17.998;2022-12-07T02:07:47;11.18;89.30
72712;SHT30;60828;40.292;17.998;2022-12-07T02:12:38;11.21;89.30
72712;SHT30;60828;40.292;17.998;2022-12-07T02:15:03;11.22;89.44
72712;SHT30;60828;40.292;17.998;2022-12-07T02:17:33;11.28;89.23
72712;SHT30;60828;40.292;17.998;2022-12-07T02:27:47;11.22;89.25
72712;SHT30;60828;40.292;17.998;2022-12-07T02:40:23;11.11;89.60
72712;SHT30;60828;40.292;17.998;2022-12-07T02:42:50;11.18;89.50
72712;SHT30;60828;40.292;17.998;2022-12-07T02:45:17;11.15;89.54
72712;SHT30;60828;40.292;17.998;2022-12-07T02:47:44;11.15;89.50
72712;SHT30;60828;40.292;17.998;2022-12-07T02:50:10;11.25;89.23
72712;SHT30;60828;40.292;17.998;2022-12-07T02:52:39;11.07;89.27
72712;SHT30;60828;40.292;17.998;2022-12-07T02:55:05;11.15;89.52
72712;SHT30;60828;40.292;17.998;2022-12-07T03:00:20;11.14;89.33
72712;SHT30;60828;40.292;17.998;2022-12-07T03:02:48;11.05;89.52
72712;SHT30;60828;40.292;17.998;2022-12-07T03:08:04;10.98;89.66
72712;SHT30;60828;40.292;17.998;2022-12-07T03:13:23;11.14;89.20
72712;SHT30;60828;40.292;17.998;2022-12-07T03:21:23;11.15;89.13
72712;SHT30;60828;40.292;17.998;2022-12-07T03:23:51;11.10;89.03
72712;SHT30;60828;40.292;17.998;2022-12-07T03:26:19;11.05;89.03
72712;SHT30;60828;40.292;17.998;2022-12-07T03:28:47;11.03;89.38
72712;SHT30;60828;40.292;17.998;2022-12-07T03:31:26;11.12;89.06
72712;SHT30;60828;40.292;17.998;2022-12-07T03:36:43;11.05;89.03
72712;SHT30;60828;40.292;17.998;2022-12-07T03:39:21;11.03;89.06
72712;SHT30;60828;40.292;17.998;2022-12-07T03:41:47;10.97;89.13
72712;SHT30;60828;40.292;17.998;2022-12-07T03:44:14;10.93;89.27
72712;SHT30;60828;40.292;17.998;2022-12-07T03:49:25;10.91;89.38
72712;SHT30;60828;40.292;17.998;2022-12-07T03:54:36;10.88;89.52
72712;SHT30;60828;40.292;17.998;2022-12-07T03:57:05;10.77;89.41
72712;SHT30;60828;40.292;17.998;2022-12-07T03:59:30;10.83;89.59
72712;SHT30;60828;40.292;17.998;2022-12-07T04:01:56;10.87;89.44
72712;SHT30;60828;40.292;17.998;2022-12-07T04:04:24;10.80;89.61
72712;SHT30;60828;40.292;17.998;2022-12-07T04:06:49;10.81;89.60
72712;SHT30;60828;40.292;17.998;2022-12-07T04:09:15;10.85;89.49
72712;SHT30;60828;40.292;17.998;2022-12-07T04:11:41;10.83;89.28
72712;SHT30;60828;40.292;17.998;2022-12-07T04:14:09;10.83;89.34
72712;SHT30;60828;40.292;17.998;2022-12-07T04:16:44;10.81;89.38
72712;SHT30;60828;40.292;17.998;2022-12-07T04:19:09;10.88;89.43
72712;SHT30;60828;40.292;17.998;2022-12-07T04:21:35;10.83;89.34
72712;SHT30;60828;40.292;17.998;2022-12-07T04:24:00;10.84;89.35
72712;SHT30;60828;40.292;17.998;2022-12-07T04:26:25;10.83;89.46
72712;SHT30;60828;40.292;17.998;2022-12-07T04:28:51;10.81;89.40
72712;SHT30;60828;40.292;17.998;2022-12-07T04:31:16;10.81;89.29
72712;SHT30;60828;40.292;17.998;2022-12-07T04:33:41;10.83;89.27
72712;SHT30;60828;40.292;17.998;2022-12-07T04:36:07;10.80;89.40
72712;SHT30;60828;40.292;17.998;2022-12-07T04:38:32;10.78;89.55
72712;SHT30;60828;40.292;17.998;2022-12-07T04:40:58;10.84;89.47
72712;SHT30;60828;40.292;17.998;2022-12-07T04:43:23;10.73;89.62
72712;SHT30;60828;40.292;17.998;2022-12-07T04:45:48;10.83;89.46
72712;SHT30;60828;40.292;17.998;2022-12-07T04:48:14;10.81;89.31
72712;SHT30;60828;40.292;17.998;2022-12-07T04:50:39;10.81;89.30
72712;SHT30;60828;40.292;17.998;2022-12-07T04:53:05;10.80;89.10
72712;SHT30;60828;40.292;17.998;2022-12-07T04:55:30;10.83;89.06
72712;SHT30;60828;40.292;17.998;2022-12-07T04:57:56;10.85;88.93
72712;SHT30;60828;40.292;17.998;2022-12-07T05:00:21;10.76;89.09
72712;SHT30;60828;40.292;17.998;2022-12-07T05:02:46;10.73;89.17
72712;SHT30;60828;40.292;17.998;2022-12-07T05:05:12;10.63;89.28
72712;SHT30;60828;40.292;17.998;2022-12-07T05:07:37;10.73;89.18
72712;SHT30;60828;40.292;17.998;2022-12-07T05:10:03;10.73;89.04
72712;SHT30;60828;40.292;17.998;2022-12-07T05:12:28;10.68;89.21
72712;SHT30;60828;40.292;17.998;2022-12-07T05:14:53;10.68;89.19
72712;SHT30;60828;40.292;17.998;2022-12-07T05:17:19;10.73;89.17
72712;SHT30;60828;40.292;17.998;2022-12-07T05:19:44;10.64;89.17
72712;SHT30;60828;40.292;17.998;2022-12-07T05:22:09;10.57;89.45
72712;SHT30;60828;40.292;17.998;2022-12-07T05:24:35;10.67;89.46
72712;SHT30;60828;40.292;17.998;2022-12-07T05:27:00;10.66;89.31
72712;SHT30;60828;40.292;17.998;2022-12-07T05:29:26;10.64;89.12
72712;SHT30;60828;40.292;17.998;2022-12-07T05:31:51;10.63;89.19
72712;SHT30;60828;40.292;17.998;2022-12-07T05:34:16;10.64;89.17
72712;SHT30;60828;40.292;17.998;2022-12-07T05:36:42;10.66;89.19
72712;SHT30;60828;40.292;17.998;2022-12-07T05:39:07;10.64;89.26
72712;SHT30;60828;40.292;17.998;2022-12-07T05:41:32;10.63;89.31
72712;SHT30;60828;40.292;17.998;2022-12-07T05:44:16;10.60;89.52
72712;SHT30;60828;40.292;17.998;2022-12-07T05:46:42;10.73;89.47
72712;SHT30;60828;40.292;17.998;2022-12-07T05:49:08;10.76;89.36
72712;SHT30;60828;40.292;17.998;2022-12-07T05:51:33;10.81;89.16
72712;SHT30;60828;40.292;17.998;2022-12-07T05:53:59;10.81;89.09
72712;SHT30;60828;40.292;17.998;2022-12-07T05:56:24;10.81;89.19
72712;SHT30;60828;40.292;17.998;2022-12-07T05:58:50;10.81;88.97
72712;SHT30;60828;40.292;17.998;2022-12-07T06:01:33;10.85;89.16
72712;SHT30;60828;40.292;17.998;2022-12-07T06:03:59;10.91;89.06
72712;SHT30;60828;40.292;17.998;2022-12-07T06:06:24;10.91;89.05
72712;SHT30;60828;40.292;17.998;2022-12-07T06:08:49;10.94;89.17
72712;SHT30;60828;40.292;17.998;2022-12-07T06:11:15;10.91;88.86
72712;SHT30;60828;40.292;17.998;2022-12-07T06:14:00;11.00;88.69
72712;SHT30;60828;40.292;17.998;2022-12-07T06:16:26;11.08;88.71
72712;SHT30;60828;40.292;17.998;2022-12-07T06:18:52;11.15;88.54
72712;SHT30;60828;40.292;17.998;2022-12-07T06:21:17;11.14;88.40
72712;SHT30;60828;40.292;17.998;2022-12-07T06:23:43;11.18;88.39
72712;SHT30;60828;40.292;17.998;2022-12-07T06:26:08;11.33;88.23
72712;SHT30;60828;40.292;17.998;2022-12-07T06:28:33;11.50;87.82
72712;SHT30;60828;40.292;17.998;2022-12-07T06:30:59;11.74;87.24
72712;SHT30;60828;40.292;17.998;2022-12-07T06:33:25;12.10;87.17
72712;SHT30;60828;40.292;17.998;2022-12-07T06:35:50;12.90;85.47
72712;SHT30;60828;40.292;17.998;2022-12-07T06:38:16;13.72;82.89
72712;SHT30;60828;40.292;17.998;2022-12-07T06:40:41;14.12;81.02
72712;SHT30;60828;40.292;17.998;2022-12-07T06:43:07;14.12;80.67
72712;SHT30;60828;40.292;17.998;2022-12-07T06:45:33;13.99;81.17
72712;SHT30;60828;40.292;17.998;2022-12-07T06:47:59;13.90;80.99
72712;SHT30;60828;40.292;17.998;2022-12-07T06:50:24;13.97;81.43
72712;SHT30;60828;40.292;17.998;2022-12-07T06:52:50;14.21;81.26
72712;SHT30;60828;40.292;17.998;2022-12-07T06:55:21;14.52;80.18
72712;SHT30;60828;40.292;17.998;2022-12-07T06:57:47;14.67;80.00
72712;SHT30;60828;40.292;17.998;2022-12-07T07:00:12;14.69;79.71
72712;SHT30;60828;40.292;17.998;2022-12-07T07:02:38;14.89;79.48
72712;SHT30;60828;40.292;17.998;2022-12-07T07:05:03;15.06;79.37
72712;SHT30;60828;40.292;17.998;2022-12-07T07:07:29;15.30;78.75
72712;SHT30;60828;40.292;17.998;2022-12-07T07:09:54;15.46;78.38
72712;SHT30;60828;40.292;17.998;2022-12-07T07:12:19;15.85;77.87
72712;SHT30;60828;40.292;17.998;2022-12-07T07:14:45;16.17;76.78
72712;SHT30;60828;40.292;17.998;2022-12-07T07:17:10;16.19;76.59
72712;SHT30;60828;40.292;17.998;2022-12-07T07:19:35;16.17;76.41
72712;SHT30;60828;40.292;17.998;2022-12-07T07:22:02;16.88;75.73
72712;SHT30;60828;40.292;17.998;2022-12-07T07:24:28;17.12;73.90
72712;SHT30;60828;40.292;17.998;2022-12-07T07:26:53;17.16;74.58
72712;SHT30;60828;40.292;17.998;2022-12-07T07:29:19;17.19;74.09
72712;SHT30;60828;40.292;17.998;2022-12-07T07:31:44;17.15;73.76
72712;SHT30;60828;40.292;17.998;2022-12-07T07:34:09;17.14;74.62
72712;SHT30;60828;40.292;17.998;2022-12-07T07:36:35;17.14;74.96
72712;SHT30;60828;40.292;17.998;2022-12-07T07:39:00;17.04;74.31
72712;SHT30;60828;40.292;17.998;2022-12-07T07:41:26;16.88;75.63
72712;SHT30;60828;40.292;17.998;2022-12-07T07:43:51;16.71;75.85
72712;SHT30;60828;40.292;17.998;2022-12-07T07:46:17;16.58;76.36
72712;SHT30;60828;40.292;17.998;2022-12-07T07:48:51;16.81;76.23
72712;SHT30;60828;40.292;17.998;2022-12-07T07:51:16;17.05;75.77
72712;SHT30;60828;40.292;17.998;2022-12-07T07:53:42;17.91;73.96
72712;SHT30;60828;40.292;17.998;2022-12-07T07:56:07;19.29;71.38
72712;SHT30;60828;40.292;17.998;2022-12-07T07:58:33;21.23;64.71
72712;SHT30;60828;40.292;17.998;2022-12-07T08:01:05;20.38;64.89
72712;SHT30;60828;40.292;17.998;2022-12-07T08:03:30;19.03;69.03
72712;SHT30;60828;40.292;17.998;2022-12-07T08:05:56;17.94;72.35
72712;SHT30;60828;40.292;17.998;2022-12-07T08:08:21;18.28;73.88
72712;SHT30;60828;40.292;17.998;2022-12-07T08:10:47;21.31;66.77
72712;SHT30;60828;40.292;17.998;2022-12-07T08:13:14;23.95;56.65
72712;SHT30;60828;40.292;17.998;2022-12-07T08:15:41;25.63;52.44
72712;SHT30;60828;40.292;17.998;2022-12-07T08:18:06;25.01;53.16
72712;SHT30;60828;40.292;17.998;2022-12-07T08:20:33;23.63;55.69
72712;SHT30;60828;40.292;17.998;2022-12-07T08:22:59;22.50;59.92
72712;SHT30;60828;40.292;17.998;2022-12-07T08:25:24;21.13;62.73
72712;SHT30;60828;40.292;17.998;2022-12-07T08:27:50;20.75;65.07
72712;SHT30;60828;40.292;17.998;2022-12-07T08:30:16;20.08;68.38
72712;SHT30;60828;40.292;17.998;2022-12-07T08:32:42;20.03;69.43
72712;SHT30;60828;40.292;17.998;2022-12-07T08:35:08;20.69;67.49
72712;SHT30;60828;40.292;17.998;2022-12-07T08:37:34;20.44;68.83
72712;SHT30;60828;40.292;17.998;2022-12-07T08:39:59;20.27;69.76
72712;SHT30;60828;40.292;17.998;2022-12-07T08:42:25;20.48;69.20
72712;SHT30;60828;40.292;17.998;2022-12-07T08:44:55;19.94;70.03
72712;SHT30;60828;40.292;17.998;2022-12-07T08:47:20;20.24;70.57
72712;SHT30;60828;40.292;17.998;2022-12-07T08:49:46;21.82;64.95
72712;SHT30;60828;40.292;17.998;2022-12-07T08:52:12;23.08;61.93
72712;SHT30;60828;40.292;17.998;2022-12-07T08:54:38;25.19;57.27
72712;SHT30;60828;40.292;17.998;2022-12-07T08:57:05;24.21;58.06
72712;SHT30;60828;40.292;17.998;2022-12-07T08:59:31;22.20;63.22
72712;SHT30;60828;40.292;17.998;2022-12-07T09:01:57;20.32;68.84
72712;SHT30;60828;40.292;17.998;2022-12-07T09:04:23;19.35;71.97
72712;SHT30;60828;40.292;17.998;2022-12-07T09:06:48;18.63;74.42
72712;SHT30;60828;40.292;17.998;2022-12-07T09:09:13;18.15;75.68
72712;SHT30;60828;40.292;17.998;2022-12-07T09:11:39;18.01;76.55
72712;SHT30;60828;40.292;17.998;2022-12-07T09:14:04;17.90;77.08
72712;SHT30;60828;40.292;17.998;2022-12-07T09:16:30;17.70;77.50
72712;SHT30;60828;40.292;17.998;2022-12-07T09:18:55;17.57;77.77
72712;SHT30;60828;40.292;17.998;2022-12-07T09:21:20;17.49;78.38
72712;SHT30;60828;40.292;17.998;2022-12-07T09:23:46;17.55;78.20
72712;SHT30;60828;40.292;17.998;2022-12-07T09:26:14;17.43;78.32
72712;SHT30;60828;40.292;17.998;2022-12-07T09:28:40;17.51;78.44
72712;SHT30;60828;40.292;17.998;2022-12-07T09:31:05;17.43;78.76
72712;SHT30;60828;40.292;17.998;2022-12-07T09:33:31;17.55;78.51
72712;SHT30;60828;40.292;17.998;2022-12-07T09:35:57;17.53;78.60
72712;SHT30;60828;40.292;17.998;2022-12-07T09:38:23;17.35;79.02
72712;SHT30;60828;40.292;17.998;2022-12-07T09:40:49;17.32;79.35
72712;SHT30;60828;40.292;17.998;2022-12-07T09:43:24;17.18;79.77
72712;SHT30;60828;40.292;17.998;2022-12-07T09:45:53;16.99;80.03
72712;SHT30;60828;40.292;17.998;2022-12-07T09:48:21;16.88;79.99
72712;SHT30;60828;40.292;17.998;2022-12-07T09:50:47;16.81;80.22
72712;SHT30;60828;40.292;17.998;2022-12-07T09:53:34;16.74;80.72
72712;SHT30;60828;40.292;17.998;2022-12-07T09:55:58;16.67;80.88
72712;SHT30;60828;40.292;17.998;2022-12-07T09:58:24;16.67;81.23
72712;SHT30;60828;40.292;17.998;2022-12-07T10:00:59;16.64;81.33
72712;SHT30;60828;40.292;17.998;2022-12-07T10:03:26;16.58;81.46
72712;SHT30;60828;40.292;17.998;2022-12-07T10:05:51;16.53;81.39
72712;SHT30;60828;40.292;17.998;2022-12-07T10:08:17;16.53;81.65
72712;SHT30;60828;40.292;17.998;2022-12-07T10:10:43;16.50;80.12
72712;SHT30;60828;40.292;17.998;2022-12-07T10:13:12;16.46;78.11
72712;SHT30;60828;40.292;17.998;2022-12-07T10:18:17;16.71;75.48
72712;SHT30;60828;40.292;17.998;2022-12-07T10:20:43;16.78;75.00
72712;SHT30;60828;40.292;17.998;2022-12-07T10:23:14;16.92;75.52
72712;SHT30;60828;40.292;17.998;2022-12-07T10:25:40;17.04;75.18
72712;SHT30;60828;40.292;17.998;2022-12-07T10:28:11;17.01;73.15
72712;SHT30;60828;40.292;17.998;2022-12-07T11:01:39;18.35;77.14
72712;SHT30;60828;40.292;17.998;2022-12-07T11:07:17;18.63;76.82
72712;SHT30;60828;40.292;17.998;2022-12-07T11:32:49;17.57;80.05
72712;SHT30;60828;40.292;17.998;2022-12-07T11:37:49;17.80;79.70
72712;SHT30;60828;40.292;17.998;2022-12-07T11:40:27;17.92;79.57
72712;SHT30;60828;40.292;17.998;2022-12-07T11:43:25;17.84;79.58
72712;SHT30;60828;40.292;17.998;2022-12-07T11:46:04;17.84;79.55
72712;SHT30;60828;40.292;17.998;2022-12-07T11:48:41;17.75;79.97
72712;SHT30;60828;40.292;17.998;2022-12-07T11:51:11;17.77;80.38
72712;SHT30;60828;40.292;17.998;2022-12-07T11:53:59;17.95;79.56
72712;SHT30;60828;40.292;17.998;2022-12-07T11:56:28;17.94;79.63
72712;SHT30;60828;40.292;17.998;2022-12-07T11:59:01;17.88;79.72
72712;SHT30;60828;40.292;17.998;2022-12-07T12:06:43;17.92;79.50
72712;SHT30;60828;40.292;17.998;2022-12-07T12:20:28;17.80;79.68
72712;SHT30;60828;40.292;17.998;2022-12-07T12:23:00;17.71;79.87
72712;SHT30;60828;40.292;17.998;2022-12-07T12:25:35;17.81;79.91
72712;SHT30;60828;40.292;17.998;2022-12-07T12:28:02;17.84;79.71
72712;SHT30;60828;40.292;17.998;2022-12-07T12:33:05;17.78;79.57
72712;SHT30;60828;40.292;17.998;2022-12-07T12:35:37;17.82;79.45
72712;SHT30;60828;40.292;17.998;2022-12-07T12:38:31;17.92;79.29
72712;SHT30;60828;40.292;17.998;2022-12-07T12:40:59;17.88;79.52
72712;SHT30;60828;40.292;17.998;2022-12-07T12:43:50;18.06;79.16
72712;SHT30;60828;40.292;17.998;2022-12-07T12:51:50;17.98;79.24
72712;SHT30;60828;40.292;17.998;2022-12-07T12:54:30;17.77;79.21
72712;SHT30;60828;40.292;17.998;2022-12-07T12:59:58;17.64;79.65
72712;SHT30;60828;40.292;17.998;2022-12-07T13:02:37;17.69;79.94
72712;SHT30;60828;40.292;17.998;2022-12-07T13:05:16;17.71;80.15
72712;SHT30;60828;40.292;17.998;2022-12-07T13:21:01;17.46;80.41
72712;SHT30;60828;40.292;17.998;2022-12-07T13:26:16;17.46;80.52
72712;SHT30;60828;40.292;17.998;2022-12-07T13:31:35;17.35;80.74
72712;SHT30;60828;40.292;17.998;2022-12-07T13:34:04;17.25;81.01
72712;SHT30;60828;40.292;17.998;2022-12-07T13:36:37;17.22;80.82
72712;SHT30;60828;40.292;17.998;2022-12-07T13:39:24;17.23;80.95
72712;SHT30;60828;40.292;17.998;2022-12-07T13:41:55;17.19;81.16
72712;SHT30;60828;40.292;17.998;2022-12-07T13:44:22;17.11;81.41
72712;SHT30;60828;40.292;17.998;2022-12-07T13:49:29;17.30;81.21
72712;SHT30;60828;40.292;17.998;2022-12-07T13:52:45;17.35;81.09
72712;SHT30;60828;40.292;17.998;2022-12-07T13:57:30;17.19;81.22
72712;SHT30;60828;40.292;17.998;2022-12-07T13:59:57;17.19;81.99
72712;SHT30;60828;40.292;17.998;2022-12-07T14:02:32;17.01;82.26
72712;SHT30;60828;40.292;17.998;2022-12-07T14:05:15;16.91;82.73
72712;SHT30;60828;40.292;17.998;2022-12-07T14:10:26;16.85;82.79
72712;SHT30;60828;40.292;17.998;2022-12-07T14:12:53;16.72;83.25
72712;SHT30;60828;40.292;17.998;2022-12-07T14:15:24;16.95;82.85
72712;SHT30;60828;40.292;17.998;2022-12-07T14:17:52;16.87;82.74
72712;SHT30;60828;40.292;17.998;2022-12-07T14:20:36;16.78;83.20
72712;SHT30;60828;40.292;17.998;2022-12-07T14:23:03;16.78;83.35
72712;SHT30;60828;40.292;17.998;2022-12-07T14:25:46;16.67;83.57
72712;SHT30;60828;40.292;17.998;2022-12-07T14:28:33;16.70;83.79
72712;SHT30;60828;40.292;17.998;2022-12-07T14:30:59;16.61;83.74
72712;SHT30;60828;40.292;17.998;2022-12-07T14:33:25;16.61;83.51
72712;SHT30;60828;40.292;17.998;2022-12-07T14:35:51;16.68;83.34
72712;SHT30;60828;40.292;17.998;2022-12-07T14:38:24;16.57;83.69
72712;SHT30;60828;40.292;17.998;2022-12-07T14:40:53;16.41;83.92
72712;SHT30;60828;40.292;17.998;2022-12-07T14:43:20;16.34;84.04
72712;SHT30;60828;40.292;17.998;2022-12-07T14:45:45;16.27;84.14
72712;SHT30;60828;40.292;17.998;2022-12-07T14:48:12;16.13;84.57
72712;SHT30;60828;40.292;17.998;2022-12-07T14:50:41;16.16;84.61
72712;SHT30;60828;40.292;17.998;2022-12-07T14:53:16;16.10;84.74
72712;SHT30;60828;40.292;17.998;2022-12-07T14:55:42;16.01;85.03
72712;SHT30;60828;40.292;17.998;2022-12-07T14:58:15;15.99;85.07
72712;SHT30;60828;40.292;17.998;2022-12-07T15:00:41;15.92;85.04
72712;SHT30;60828;40.292;17.998;2022-12-07T15:03:07;16.05;85.15
72712;SHT30;60828;40.292;17.998;2022-12-07T15:05:33;15.89;85.15
72712;SHT30;60828;40.292;17.998;2022-12-07T15:07:58;15.78;85.45
72712;SHT30;60828;40.292;17.998;2022-12-07T15:10:28;15.92;85.43
72712;SHT30;60828;40.292;17.998;2022-12-07T15:12:59;15.79;85.46
72712;SHT30;60828;40.292;17.998;2022-12-07T15:15:44;15.68;85.71
72712;SHT30;60828;40.292;17.998;2022-12-07T15:18:10;15.58;86.10
72712;SHT30;60828;40.292;17.998;2022-12-07T15:20:35;15.53;86.09
72712;SHT30;60828;40.292;17.998;2022-12-07T15:23:01;15.40;86.40
72712;SHT30;60828;40.292;17.998;2022-12-07T15:25:26;15.28;86.70
72712;SHT30;60828;40.292;17.998;2022-12-07T15:27:52;15.23;86.84
72712;SHT30;60828;40.292;17.998;2022-12-07T15:30:17;15.17;87.01
72712;SHT30;60828;40.292;17.998;2022-12-07T15:32:43;15.17;87.08
72712;SHT30;60828;40.292;17.998;2022-12-07T15:35:08;15.04;87.28
72712;SHT30;60828;40.292;17.998;2022-12-07T15:37:34;14.96;87.43
72712;SHT30;60828;40.292;17.998;2022-12-07T15:39:59;14.95;87.55
72712;SHT30;60828;40.292;17.998;2022-12-07T15:42:25;14.83;87.68
72712;SHT30;60828;40.292;17.998;2022-12-07T15:44:50;14.85;87.91
72712;SHT30;60828;40.292;17.998;2022-12-07T15:47:42;14.76;87.97
72712;SHT30;60828;40.292;17.998;2022-12-07T15:50:12;14.73;88.01
72712;SHT30;60828;40.292;17.998;2022-12-07T15:52:38;14.65;88.17
72712;SHT30;60828;40.292;17.998;2022-12-07T15:55:04;14.61;88.36
72712;SHT30;60828;40.292;17.998;2022-12-07T15:57:31;14.58;88.54
72712;SHT30;60828;40.292;17.998;2022-12-07T15:59:57;14.54;88.74
72712;SHT30;60828;40.292;17.998;2022-12-07T16:02:22;14.51;88.93
72712;SHT30;60828;40.292;17.998;2022-12-07T16:04:49;14.48;89.04
72712;SHT30;60828;40.292;17.998;2022-12-07T16:07:15;14.46;89.13
72712;SHT30;60828;40.292;17.998;2022-12-07T16:09:42;14.44;89.20
72712;SHT30;60828;40.292;17.998;2022-12-07T16:12:09;14.41;89.36
72712;SHT30;60828;40.292;17.998;2022-12-07T16:14:35;14.37;89.55
72712;SHT30;60828;40.292;17.998;2022-12-07T16:17:01;14.40;89.62
72712;SHT30;60828;40.292;17.998;2022-12-07T16:19:27;14.35;89.77
72712;SHT30;60828;40.292;17.998;2022-12-07T16:21:52;14.37;89.83
72712;SHT30;60828;40.292;17.998;2022-12-07T16:24:18;14.31;89.85
72712;SHT30;60828;40.292;17.998;2022-12-07T16:26:44;14.30;89.84
72712;SHT30;60828;40.292;17.998;2022-12-07T16:29:13;14.27;89.98
72712;SHT30;60828;40.292;17.998;2022-12-07T16:31:39;14.21;90.10
72712;SHT30;60828;40.292;17.998;2022-12-07T16:34:05;14.20;90.17
72712;SHT30;60828;40.292;17.998;2022-12-07T16:36:31;14.14;90.21
72712;SHT30;60828;40.292;17.998;2022-12-07T16:39:03;14.14;90.31
72712;SHT30;60828;40.292;17.998;2022-12-07T16:41:29;14.13;90.35
72712;SHT30;60828;40.292;17.998;2022-12-07T16:43:55;14.12;90.41
72712;SHT30;60828;40.292;17.998;2022-12-07T16:46:20;14.09;90.44
72712;SHT30;60828;40.292;17.998;2022-12-07T16:48:46;14.09;90.53
72712;SHT30;60828;40.292;17.998;2022-12-07T16:51:12;14.09;90.63
72712;SHT30;60828;40.292;17.998;2022-12-07T16:53:40;14.07;90.69
72712;SHT30;60828;40.292;17.998;2022-12-07T16:56:13;14.09;90.70
72712;SHT30;60828;40.292;17.998;2022-12-07T16:58:43;13.99;90.75
72712;SHT30;60828;40.292;17.998;2022-12-07T17:01:14;14.03;90.81
72712;SHT30;60828;40.292;17.998;2022-12-07T17:03:39;14.07;90.81
72712;SHT30;60828;40.292;17.998;2022-12-07T17:06:16;14.07;90.75
72712;SHT30;60828;40.292;17.998;2022-12-07T17:08:42;14.03;90.77
72712;SHT30;60828;40.292;17.998;2022-12-07T17:11:13;14.10;90.81
72712;SHT30;60828;40.292;17.998;2022-12-07T17:13:39;14.03;90.88
72712;SHT30;60828;40.292;17.998;2022-12-07T17:16:23;13.96;90.96
72712;SHT30;60828;40.292;17.998;2022-12-07T17:18:49;13.95;91.08
72712;SHT30;60828;40.292;17.998;2022-12-07T17:21:14;13.90;91.14
72712;SHT30;60828;40.292;17.998;2022-12-07T17:23:40;13.87;91.17
72712;SHT30;60828;40.292;17.998;2022-12-07T17:26:12;13.83;91.23
72712;SHT30;60828;40.292;17.998;2022-12-07T17:28:38;13.82;91.32
72712;SHT30;60828;40.292;17.998;2022-12-07T17:31:10;13.82;91.38
72712;SHT30;60828;40.292;17.998;2022-12-07T17:33:36;13.97;91.44
72712;SHT30;60828;40.292;17.998;2022-12-07T17:36:14;14.04;91.22
72712;SHT30;60828;40.292;17.998;2022-12-07T17:38:41;14.16;91.16
72712;SHT30;60828;40.292;17.998;2022-12-07T17:41:11;14.40;90.31
72712;SHT30;60828;40.292;17.998;2022-12-07T17:43:37;14.37;89.56
72712;SHT30;60828;40.292;17.998;2022-12-07T17:46:09;14.25;89.71
72712;SHT30;60828;40.292;17.998;2022-12-07T17:48:35;14.14;89.78
72712;SHT30;60828;40.292;17.998;2022-12-07T17:51:01;14.20;89.71
72712;SHT30;60828;40.292;17.998;2022-12-07T17:53:49;14.30;89.84
72712;SHT30;60828;40.292;17.998;2022-12-07T17:56:15;14.09;89.87
72712;SHT30;60828;40.292;17.998;2022-12-07T17:58:40;14.16;89.97
72712;SHT30;60828;40.292;17.998;2022-12-07T18:01:09;13.89;90.39
72712;SHT30;60828;40.292;17.998;2022-12-07T18:03:35;13.76;90.68